Time;durP1;ratioP1;P1;durP2;ratioP2;P2;SDS_P1;SDS_P2;PMS_P1;PMS_P2;Temp;Humidity;BMP_temperature;BMP_pressure;BME280_temperature;BME280_humidity;BME280_pressure;Samples;Min_cycle;Max_cycle;Signal;HPM_P1;HPM_P2
2022/01/16 00:00:42;;;;;;;3.40;3.13;;;1.10;99.30;0.20;98933.00;;;;5117120;28;20592;-79
2022/01/16 00:05:56;;;;;;;2.57;2.47;;;1.10;99.30;0.30;98957.00;;;;5116671;28;20226;-83
2022/01/16 00:08:23;;;;;;;3.00;2.80;;;1.20;99.30;0.30;98962.00;;;;5116839;28;20700;-77
2022/01/16 00:10:50;;;;;;;5.10;4.13;;;1.20;99.20;0.30;98970.00;;;;5116682;28;20305;-77
2022/01/16 00:13:16;;;;;;;8.70;3.67;;;1.20;99.10;0.30;98986.00;;;;5116481;28;20224;-76
2022/01/16 00:15:44;;;;;;;6.03;5.50;;;1.20;99.00;0.30;98983.00;;;;5098414;28;20519;-76
2022/01/16 00:18:20;;;;;;;5.60;3.97;;;1.20;99.60;0.20;98974.00;;;;5115579;28;20213;-77
2022/01/16 00:20:47;;;;;;;3.43;2.63;;;1.20;98.50;0.20;98994.00;;;;5116361;28;20206;-77
2022/01/16 00:23:23;;;;;;;2.97;2.77;;;1.20;98.70;0.20;98987.00;;;;5116273;28;20228;-76
2022/01/16 00:25:50;;;;;;;4.70;3.47;;;1.20;98.90;0.20;98975.00;;;;5098552;28;20572;-77
2022/01/16 00:28:17;;;;;;;6.10;3.70;;;1.20;99.00;0.10;98959.00;;;;5116256;28;20228;-77
2022/01/16 00:30:43;;;;;;;4.37;3.97;;;1.10;99.30;0.10;98966.00;;;;5116295;28;20211;-76
2022/01/16 00:33:10;;;;;;;4.43;4.07;;;1.10;98.90;0.10;98957.00;;;;5116457;28;20523;-77
2022/01/16 00:35:37;;;;;;;3.43;3.23;;;1.10;99.20;0.20;98934.00;;;;5115997;28;20223;-78
2022/01/16 00:38:04;;;;;;;4.03;3.60;;;1.10;99.40;0.30;98952.00;;;;5116047;28;20225;-77
2022/01/16 00:40:31;;;;;;;6.37;3.43;;;1.20;99.60;0.30;98954.00;;;;5098243;28;20721;-78
2022/01/16 00:42:58;;;;;;;2.17;2.07;;;1.20;99.10;0.20;98960.00;;;;5116263;28;20285;-76
2022/01/16 00:45:25;;;;;;;3.40;3.10;;;1.10;98.90;0.20;98978.00;;;;5115943;28;20298;-77
2022/01/16 00:47:52;;;;;;;4.37;3.30;;;1.10;98.90;0.20;98964.00;;;;5115706;28;20292;-78
2022/01/16 00:50:19;;;;;;;4.90;4.47;;;1.10;99.10;0.10;98973.00;;;;5116084;28;20198;-77
2022/01/16 00:52:45;;;;;;;5.77;2.90;;;1.10;99.00;0.10;98955.00;;;;5115839;28;20364;-79
2022/01/16 00:55:12;;;;;;;5.97;3.77;;;1.10;98.90;0.30;98949.00;;;;5115963;28;20232;-76
2022/01/16 00:57:40;;;;;;;3.70;3.23;;;1.20;99.60;0.30;98987.00;;;;5115763;28;20198;-77
2022/01/16 01:00:08;;;;;;;11.33;4.83;;;1.20;99.30;0.20;98997.00;;;;5115853;28;20677;-77
2022/01/16 01:02:35;;;;;;;3.00;2.80;;;1.20;99.30;0.10;98994.00;;;;5115747;28;20212;-77
2022/01/16 01:05:01;;;;;;;2.67;2.53;;;1.10;99.20;-0.10;98994.00;;;;5115437;28;20250;-76
2022/01/16 01:07:28;;;;;;;6.50;2.80;;;1.00;98.80;-0.20;98998.00;;;;5115825;28;20320;-78
2022/01/16 01:09:55;;;;;;;6.30;3.70;;;0.80;98.90;-0.10;98990.00;;;;5115625;28;20194;-76
2022/01/16 01:12:27;;;;;;;3.47;3.20;;;0.90;99.60;0.00;98996.00;;;;5115573;28;20348;-76
2022/01/16 01:15:06;;;;;;;3.67;3.33;;;1.00;99.60;-0.20;99008.00;;;;5115621;28;20249;-77
2022/01/16 01:17:44;;;;;;;1.80;1.70;;;0.90;98.90;-0.10;98988.00;;;;5115614;28;20688;-77
2022/01/16 01:20:14;;;;;;;4.50;3.43;;;0.90;99.00;-0.10;98978.00;;;;5115744;28;20586;-77
2022/01/16 01:22:41;;;;;;;4.27;3.57;;;0.90;99.00;-0.20;98926.00;;;;5115562;28;20214;-77
2022/01/16 01:25:11;;;;;;;4.13;3.83;;;0.90;99.70;0.00;98895.00;;;;5097477;28;20223;-78
2022/01/16 01:27:41;;;;;;;3.23;2.20;;;0.90;99.00;0.10;98898.00;;;;5115469;28;20259;-78
2022/01/16 01:30:11;;;;;;;4.93;3.50;;;0.90;99.10;0.20;98919.00;;;;5113926;28;20229;-76
2022/01/16 01:32:38;;;;;;;2.70;2.50;;;1.00;99.10;0.20;98909.00;;;;5097924;28;20507;-76
2022/01/16 01:35:07;;;;;;;2.63;2.43;;;1.10;99.00;0.10;98919.00;;;;5115261;28;20580;-76
2022/01/16 01:37:35;;;;;;;4.13;3.73;;;1.00;98.80;0.10;98948.00;;;;5115052;28;20200;-76
2022/01/16 01:40:11;;;;;;;3.13;2.70;;;1.00;98.70;0.10;98945.00;;;;5115079;28;20277;-77
2022/01/16 01:42:44;;;;;;;2.97;2.77;;;1.00;98.20;0.10;98965.00;;;;5115141;28;20303;-76
2022/01/16 01:51:05;;;;;;;2.97;2.70;;;1.00;98.80;0.10;98984.00;;;;5115159;28;20214;-77
2022/01/16 01:53:33;;;;;;;3.07;2.87;;;1.00;98.90;0.20;98988.00;;;;5097084;28;20546;-77
2022/01/16 01:55:59;;;;;;;3.13;2.90;;;1.00;98.90;0.20;98986.00;;;;5115105;28;20402;-76
2022/01/16 01:58:26;;;;;;;2.77;2.57;;;1.00;98.90;0.20;98987.00;;;;5115024;28;20625;-76
2022/01/16 02:00:53;;;;;;;2.70;2.50;;;1.10;98.70;0.20;98989.00;;;;5114843;28;20226;-77
2022/01/16 02:03:26;;;;;;;4.57;4.17;;;1.10;98.40;0.10;99002.00;;;;5114714;28;20293;-76
2022/01/16 02:05:53;;;;;;;2.47;2.13;;;1.10;98.10;0.30;99013.00;;;;5114580;28;20217;-76
2022/01/16 02:08:22;;;;;;;3.40;2.90;;;1.10;98.30;0.10;99024.00;;;;5114884;28;20202;-77
2022/01/16 02:10:48;;;;;;;4.27;3.07;;;1.00;97.60;0.10;99031.00;;;;5118597;28;20245;-77
2022/01/16 02:13:22;;;;;;;6.80;2.87;;;1.00;98.50;-0.30;99033.00;;;;5126597;28;20304;-77
2022/01/16 02:32:47;;;;;;;1.87;1.77;;;0.70;97.80;-0.40;98990.00;;;;5114853;28;20323;-77
2022/01/16 02:35:16;;;;;;;1.77;1.67;;;0.70;97.40;-0.30;98997.00;;;;5114462;28;20704;-75
2022/01/16 02:37:42;;;;;;;4.23;3.83;;;0.60;98.10;-0.30;99000.00;;;;5114100;28;20228;-77
2022/01/16 02:40:19;;;;;;;3.80;2.93;;;0.70;97.30;-0.20;99006.00;;;;5114966;28;20229;-77
2022/01/16 02:42:50;;;;;;;2.60;2.27;;;0.70;97.90;-0.30;98993.00;;;;5117927;28;20205;-77
2022/01/16 02:45:28;;;;;;;3.83;3.43;;;0.60;97.50;-0.30;98988.00;;;;5117903;28;20233;-77
2022/01/16 02:47:55;;;;;;;3.87;3.57;;;0.70;97.70;-0.20;98980.00;;;;5117973;28;20346;-77
2022/01/16 02:50:23;;;;;;;3.50;2.93;;;0.70;97.80;-0.10;98964.00;;;;5117986;28;20222;-77
2022/01/16 02:52:50;;;;;;;2.67;2.53;;;0.70;97.90;-0.30;98968.00;;;;5117829;28;20254;-76
2022/01/16 02:55:20;;;;;;;3.03;2.83;;;0.70;96.90;-0.40;98968.00;;;;5117641;28;20296;-76
2022/01/16 02:57:48;;;;;;;3.17;2.87;;;0.60;97.10;-0.40;98959.00;;;;5117803;28;20243;-76
2022/01/16 03:00:16;;;;;;;4.57;3.20;;;0.50;97.50;-0.40;98953.00;;;;5117634;28;20194;-77
2022/01/16 03:02:43;;;;;;;3.73;3.27;;;0.50;97.70;-0.60;98964.00;;;;5117925;28;20657;-77
2022/01/16 03:05:12;;;;;;;1.87;1.77;;;0.40;97.00;-0.70;98929.00;;;;5117626;28;20273;-77
2022/01/16 03:07:39;;;;;;;2.83;2.60;;;0.40;97.40;-0.60;98956.00;;;;5117399;28;20221;-76
2022/01/16 03:10:30;;;;;;;4.47;3.10;;;0.40;98.20;-0.60;98960.00;;;;5117587;28;20259;-77
2022/01/16 03:13:00;;;;;;;1.57;1.47;;;0.40;98.20;-0.40;98952.00;;;;5117542;28;20187;-76
2022/01/16 03:15:27;;;;;;;3.30;2.47;;;0.40;98.40;-0.40;98905.00;;;;5099413;28;20205;-76
2022/01/16 03:23:25;;;;;;;2.50;2.30;;;0.50;97.90;-0.40;98933.00;;;;5117424;28;20225;-76
2022/01/16 03:25:54;;;;;;;3.10;2.17;;;0.50;97.90;-0.40;98917.00;;;;5117545;28;20245;-77
2022/01/16 03:28:22;;;;;;;6.27;2.97;;;0.50;97.80;-0.40;98950.00;;;;5117507;28;20633;-77
2022/01/16 03:30:49;;;;;;;3.97;3.17;;;0.50;98.30;-0.60;98941.00;;;;5117415;28;20539;-78
2022/01/16 03:33:17;;;;;;;3.67;3.40;;;0.40;97.30;-0.50;98944.00;;;;5117101;28;20232;-77
2022/01/16 03:35:44;;;;;;;3.27;2.47;;;0.40;97.60;-0.50;98953.00;;;;5117028;28;20597;-77
2022/01/16 03:38:11;;;;;;;1.63;1.47;;;0.40;97.70;-0.60;98937.00;;;;5117051;28;20683;-77
2022/01/16 03:40:37;;;;;;;2.03;1.93;;;0.40;98.00;-0.50;98946.00;;;;5117254;28;20198;-77
2022/01/16 03:43:13;;;;;;;4.13;3.77;;;0.40;98.00;-0.50;98940.00;;;;5116842;28;20210;-76
2022/01/16 03:45:43;;;;;;;3.27;3.07;;;0.40;98.20;-0.50;98941.00;;;;5116848;28;20245;-75
2022/01/16 03:48:10;;;;;;;2.87;2.27;;;0.40;98.30;-0.50;98949.00;;;;5099299;28;20638;-77
2022/01/16 03:50:36;;;;;;;3.30;2.57;;;0.40;98.50;-0.50;98954.00;;;;5116953;28;20240;-77
2022/01/16 03:53:04;;;;;;;2.83;2.63;;;0.50;98.60;-0.40;98955.00;;;;5115638;28;20214;-77
2022/01/16 03:55:31;;;;;;;3.67;3.37;;;0.50;98.80;-0.50;98951.00;;;;5116627;28;20186;-77
2022/01/16 03:57:58;;;;;;;3.47;3.17;;;0.50;98.50;-0.30;98960.00;;;;5098629;28;20258;-77
2022/01/16 04:00:25;;;;;;;2.80;2.53;;;0.60;98.90;-0.30;98955.00;;;;5116687;28;20604;-77
2022/01/16 04:02:52;;;;;;;4.60;4.20;;;0.60;98.80;-0.30;98962.00;;;;5116792;28;20760;-77
2022/01/16 04:05:19;;;;;;;2.63;2.43;;;0.70;98.70;-0.20;98956.00;;;;5116495;28;20679;-77
2022/01/16 04:07:46;;;;;;;4.27;3.13;;;0.70;98.60;-0.40;98964.00;;;;5116626;28;20190;-77
2022/01/16 04:10:13;;;;;;;3.50;3.07;;;0.60;97.30;-0.60;98973.00;;;;5116506;28;20202;-77
2022/01/16 04:12:44;;;;;;;2.00;1.90;;;0.50;97.40;-0.60;98967.00;;;;5116601;28;20249;-76
2022/01/16 04:15:34;;;;;;;2.53;2.37;;;0.40;97.50;-0.50;98949.00;;;;5116519;28;20527;-77
2022/01/16 04:18:06;;;;;;;7.40;2.77;;;0.50;98.50;-0.50;98964.00;;;;5116425;28;20209;-76
2022/01/16 04:20:33;;;;;;;7.07;4.10;;;0.50;98.40;-0.60;98960.00;;;;5116285;28;20239;-76
2022/01/16 04:23:06;;;;;;;2.50;2.30;;;0.50;98.20;-0.70;98959.00;;;;5116352;28;20206;-76
2022/01/16 04:25:35;;;;;;;3.47;3.23;;;0.30;97.90;-0.50;98958.00;;;;5116233;28;20219;-77
2022/01/16 04:28:02;;;;;;;3.30;2.90;;;0.30;98.70;-0.50;98952.00;;;;5116083;28;20237;-77
2022/01/16 04:30:31;;;;;;;2.97;2.63;;;0.40;98.50;-0.50;98944.00;;;;5098249;28;20209;-76
2022/01/16 04:32:57;;;;;;;2.80;2.17;;;0.50;97.70;-0.60;98952.00;;;;5115925;28;20190;-76
2022/01/16 04:35:27;;;;;;;2.03;1.93;;;0.40;97.70;-0.60;98942.00;;;;5116114;28;20533;-77
2022/01/16 04:37:54;;;;;;;5.57;3.27;;;0.40;98.10;-0.70;98944.00;;;;5116036;28;20198;-77
2022/01/16 04:40:22;;;;;;;4.73;4.30;;;0.30;97.80;-0.80;98947.00;;;;5115895;28;20218;-77
2022/01/16 04:45:34;;;;;;;2.77;2.57;;;0.20;99.50;-0.90;98954.00;;;;5115843;28;20252;-76
2022/01/16 04:48:00;;;;;;;4.20;3.90;;;0.10;99.40;-1.00;98948.00;;;;5098085;28;20529;-77
2022/01/16 04:50:28;;;;;;;4.07;3.73;;;0.10;99.80;-0.90;98946.00;;;;5115844;28;20194;-77
2022/01/16 04:52:54;;;;;;;2.70;2.50;;;0.10;99.90;-1.10;98953.00;;;;5115742;28;20312;-77
2022/01/16 04:55:24;;;;;;;2.43;2.23;;;0.00;99.60;-1.00;98956.00;;;;5115832;28;20225;-77
2022/01/16 04:57:51;;;;;;;3.70;3.20;;;0.00;99.90;-0.90;98954.00;;;;5115739;28;20371;-77
2022/01/16 05:00:18;;;;;;;6.43;2.97;;;0.10;99.50;-1.10;98955.00;;;;5115768;28;20218;-77
2022/01/16 05:02:45;;;;;;;4.00;2.80;;;0.00;99.50;-1.10;98935.00;;;;5115349;28;20280;-77
2022/01/16 05:05:12;;;;;;;2.07;1.97;;;0.00;99.70;-1.00;98943.00;;;;5115570;28;20218;-77
2022/01/16 05:07:40;;;;;;;1.97;1.87;;;0.00;99.90;-0.80;98955.00;;;;5115787;28;20526;-77
2022/01/16 05:10:08;;;;;;;2.70;2.50;;;0.10;99.90;-1.00;98952.00;;;;5115587;28;20305;-77
2022/01/16 05:12:38;;;;;;;1.80;1.73;;;0.00;99.50;-1.00;98947.00;;;;5115509;28;20199;-75
2022/01/16 05:17:52;;;;;;;9.10;2.73;;;0.10;99.90;-1.00;98954.00;;;;5115445;28;20198;-77
2022/01/16 05:20:20;;;;;;;2.43;2.13;;;0.10;98.60;-1.10;98946.00;;;;5115317;28;20312;-76
2022/01/16 05:22:47;;;;;;;2.33;2.23;;;0.00;98.80;-1.10;98940.00;;;;5115610;28;20296;-77
2022/01/16 05:25:16;;;;;;;2.93;2.73;;;0.00;99.20;-0.90;98887.00;;;;5115145;28;20220;-77
2022/01/16 05:27:42;;;;;;;4.47;2.50;;;0.00;99.40;-0.80;98937.00;;;;5115350;28;20225;-77
2022/01/16 05:30:12;;;;;;;2.23;2.13;;;0.10;99.10;-0.90;98939.00;;;;5115347;28;20257;-77
2022/01/16 05:32:38;;;;;;;3.57;3.27;;;0.10;98.20;-1.00;98934.00;;;;5115255;28;20584;-77
2022/01/16 05:35:07;;;;;;;2.63;2.43;;;0.00;98.00;-0.80;98937.00;;;;5115152;28;20218;-76
2022/01/16 05:37:33;;;;;;;5.40;3.77;;;0.10;97.00;-1.20;98945.00;;;;5115022;28;20266;-75
2022/01/16 05:40:00;;;;;;;3.77;3.47;;;-0.10;96.20;-1.10;98948.00;;;;5114938;28;20201;-77
2022/01/16 05:42:27;;;;;;;2.93;2.77;;;-0.10;96.80;-1.10;98956.00;;;;5115146;28;20300;-77
2022/01/16 05:44:54;;;;;;;2.83;2.63;;;-0.10;97.30;-1.20;98960.00;;;;5114727;28;20596;-77
2022/01/16 05:47:20;;;;;;;6.30;3.10;;;-0.20;97.20;-1.20;98968.00;;;;5114830;28;20342;-77
2022/01/16 05:49:47;;;;;;;5.10;4.40;;;-0.20;97.40;-1.20;98971.00;;;;5114923;28;20293;-76
2022/01/16 05:52:13;;;;;;;3.23;2.93;;;-0.20;97.20;-1.00;98975.00;;;;5114985;28;20620;-77
2022/01/16 05:54:40;;;;;;;3.60;3.30;;;-0.10;97.80;-1.20;98937.00;;;;5114816;28;20210;-76
2022/01/16 05:57:09;;;;;;;2.87;2.67;;;0.00;97.10;-1.30;98971.00;;;;5114868;28;20202;-77
2022/01/16 05:59:36;;;;;;;1.50;1.50;;;-0.10;96.90;-1.10;98961.00;;;;5114762;28;20826;-77
2022/01/16 06:02:03;;;;;;;3.80;2.47;;;-0.10;97.30;-1.20;98927.00;;;;5119537;28;20202;-76
2022/01/16 06:04:30;;;;;;;2.27;2.07;;;-0.20;96.70;-1.00;98973.00;;;;5126635;28;20217;-76
2022/01/16 06:06:56;;;;;;;2.13;2.03;;;-0.10;97.10;-0.90;98977.00;;;;5124995;28;20256;-76
2022/01/16 06:09:25;;;;;;;2.57;2.40;;;0.00;96.40;-1.10;98943.00;;;;5116647;28;20237;-76
2022/01/16 06:11:53;;;;;;;11.33;4.57;;;-0.10;96.00;-1.10;98978.00;;;;5115606;28;20236;-77
2022/01/16 06:14:22;;;;;;;3.53;3.33;;;-0.10;95.90;-1.20;98982.00;;;;5114567;28;20259;-76
2022/01/16 06:16:48;;;;;;;3.73;3.10;;;-0.20;95.80;-1.00;98982.00;;;;5125123;28;20285;-77
2022/01/16 06:19:17;;;;;;;4.50;3.37;;;-0.10;96.00;-1.20;98986.00;;;;5127179;28;20216;-77
2022/01/16 06:21:43;;;;;;;1.83;1.73;;;-0.10;95.90;-1.20;98986.00;;;;5117249;28;20205;-77
2022/01/16 06:24:10;;;;;;;2.33;2.17;;;-0.20;95.80;-1.10;98989.00;;;;5115004;28;20229;-77
2022/01/16 06:26:37;;;;;;;2.73;2.13;;;-0.10;96.10;-1.10;98980.00;;;;5114593;28;20702;-77
2022/01/16 06:29:04;;;;;;;2.50;2.30;;;-0.10;96.40;-0.90;98997.00;;;;5114472;28;20194;-77
2022/01/16 06:31:31;;;;;;;5.60;3.37;;;0.00;96.40;-0.80;98999.00;;;;5114465;28;20242;-77
2022/01/16 06:34:00;;;;;;;3.43;3.13;;;0.10;96.60;-0.90;98995.00;;;;5114531;28;20194;-77
2022/01/16 06:36:26;;;;;;;2.33;2.20;;;0.00;95.90;-1.00;99006.00;;;;5114436;28;20267;-77
2022/01/16 06:38:54;;;;;;;3.63;2.80;;;0.00;95.80;-1.00;98996.00;;;;5114538;28;20208;-77
2022/01/16 06:41:21;;;;;;;2.37;2.17;;;-0.10;95.60;-1.10;98986.00;;;;5114267;28;20628;-77
2022/01/16 06:43:48;;;;;;;3.30;3.00;;;-0.10;95.60;-1.30;99001.00;;;;5114430;28;20271;-77
2022/01/16 06:46:14;;;;;;;3.97;2.67;;;-0.20;95.40;-1.20;99001.00;;;;5096241;28;20584;-77
2022/01/16 06:48:42;;;;;;;2.10;1.90;;;-0.20;96.60;-1.20;98998.00;;;;5096133;28;20393;-77
2022/01/16 06:51:08;;;;;;;5.27;4.13;;;-0.20;96.20;-1.10;99012.00;;;;5114343;28;20201;-77
2022/01/16 06:53:35;;;;;;;3.10;2.40;;;-0.20;96.20;-1.20;99018.00;;;;5096422;28;20554;-77
2022/01/16 06:56:03;;;;;;;5.23;3.10;;;-0.30;95.80;-1.20;99026.00;;;;5114084;28;20206;-77
2022/01/16 06:58:29;;;;;;;2.93;2.73;;;-0.20;96.20;-1.40;99037.00;;;;5114056;28;20269;-77
2022/01/16 07:00:56;;;;;;;1.77;1.67;;;-0.30;95.40;-1.70;99033.00;;;;5114305;28;20304;-77
2022/01/16 07:03:22;;;;;;;2.57;2.37;;;-0.50;95.90;-1.60;99047.00;;;;5095937;28;20702;-77
2022/01/16 07:05:50;;;;;;;2.53;2.43;;;-0.50;96.60;-1.60;99047.00;;;;5113932;28;20313;-77
2022/01/16 07:08:22;;;;;;;4.40;3.00;;;-0.50;97.50;-1.50;99049.00;;;;5114041;28;20221;-77
2022/01/16 07:10:50;;;;;;;2.03;1.93;;;-0.50;97.00;-1.50;99060.00;;;;5114131;28;20657;-77
2022/01/16 07:13:17;;;;;;;3.17;2.77;;;-0.50;95.60;-1.50;99056.00;;;;5096177;28;20657;-77
2022/01/16 07:15:43;;;;;;;3.13;2.90;;;-0.60;95.90;-1.40;99053.00;;;;5114182;28;20202;-77
2022/01/16 07:18:10;;;;;;;8.60;2.90;;;-0.50;96.10;-1.50;99038.00;;;;5096071;28;20225;-77
2022/01/16 07:20:36;;;;;;;2.97;2.67;;;-0.50;95.80;-1.60;99042.00;;;;5113732;28;20218;-76
2022/01/16 07:23:04;;;;;;;3.30;3.07;;;-0.50;95.90;-1.40;99055.00;;;;5113926;28;20242;-77
2022/01/16 07:25:30;;;;;;;3.67;2.90;;;-0.50;96.50;-1.30;99044.00;;;;5113617;28;20221;-76
2022/01/16 07:27:57;;;;;;;1.70;1.60;;;-0.40;96.60;-1.30;99070.00;;;;5117101;28;20203;-77
2022/01/16 07:30:23;;;;;;;3.07;2.87;;;-0.40;96.10;-1.40;99060.00;;;;5117110;28;20313;-77
2022/01/16 07:32:50;;;;;;;3.03;2.17;;;-0.30;96.10;-1.60;99071.00;;;;5117194;28;20345;-77
2022/01/16 07:35:16;;;;;;;2.30;2.10;;;-0.40;95.40;-1.60;99083.00;;;;5117109;28;20276;-77
2022/01/16 07:37:43;;;;;;;3.83;3.53;;;-0.50;95.90;-1.60;99073.00;;;;5117064;28;20230;-76
2022/01/16 07:40:12;;;;;;;2.43;2.33;;;-0.50;96.00;-1.50;99065.00;;;;5117376;28;20350;-77
2022/01/16 07:42:39;;;;;;;2.27;2.10;;;-0.50;96.40;-1.40;99079.00;;;;5117069;28;20209;-77
2022/01/16 07:45:07;;;;;;;2.83;2.63;;;-0.40;96.60;-1.40;99080.00;;;;5117079;28;20230;-77
2022/01/16 07:47:33;;;;;;;3.80;2.73;;;-0.40;96.50;-1.30;99087.00;;;;5116909;28;20346;-77
2022/01/16 07:50:00;;;;;;;1.77;1.43;;;-0.30;96.70;-1.20;99099.00;;;;5117182;28;20257;-77
2022/01/16 07:52:26;;;;;;;4.97;3.47;;;-0.30;96.60;-1.20;99109.00;;;;5116874;28;20709;-77
2022/01/16 07:54:53;;;;;;;3.70;3.40;;;-0.20;96.30;-1.40;99125.00;;;;5116657;28;20194;-77
2022/01/16 07:57:20;;;;;;;3.67;2.60;;;-0.30;95.70;-1.20;99130.00;;;;5117062;28;20288;-78
2022/01/16 07:59:46;;;;;;;2.13;2.00;;;-0.30;96.90;-1.30;99129.00;;;;5116933;28;20332;-75
2022/01/16 08:02:13;;;;;;;4.10;2.63;;;-0.30;95.40;-1.40;99127.00;;;;5116665;28;20228;-75
2022/01/16 08:04:39;;;;;;;5.53;3.10;;;-0.40;94.40;-1.40;99139.00;;;;5116756;28;20277;-75
2022/01/16 08:07:09;;;;;;;2.87;2.67;;;-0.30;94.80;-1.40;99133.00;;;;5116551;28;20230;-75
2022/01/16 08:09:38;;;;;;;3.37;3.10;;;-0.30;94.90;-1.30;99122.00;;;;5098616;28;20234;-76
2022/01/16 08:12:06;;;;;;;2.87;2.67;;;-0.30;95.00;-1.40;99122.00;;;;5116584;28;20319;-75
2022/01/16 08:14:34;;;;;;;2.87;2.67;;;-0.30;94.80;-1.50;99116.00;;;;5116373;28;20756;-75
2022/01/16 08:17:01;;;;;;;2.17;1.97;;;-0.30;94.80;-1.40;99133.00;;;;5116701;28;20554;-75
2022/01/16 08:19:28;;;;;;;1.83;1.73;;;-0.40;94.90;-1.30;99138.00;;;;5116391;28;20292;-76
2022/01/16 08:21:56;;;;;;;1.87;1.77;;;-0.30;95.20;-1.30;99123.00;;;;5123050;28;20262;-76
2022/01/16 08:24:22;;;;;;;6.53;4.10;;;-0.30;94.50;-1.40;99120.00;;;;5116643;28;20684;-77
2022/01/16 08:26:50;;;;;;;3.63;3.40;;;-0.30;94.50;-1.40;99116.00;;;;5116180;28;20605;-76
2022/01/16 08:29:17;;;;;;;2.17;2.07;;;-0.40;94.60;-1.30;99125.00;;;;5116299;28;20636;-76
2022/01/16 08:31:44;;;;;;;3.07;2.87;;;-0.20;95.00;-1.30;99113.00;;;;5116177;28;20206;-76
2022/01/16 08:34:13;;;;;;;3.97;3.67;;;-0.30;94.90;-1.20;99125.00;;;;5116427;28;20287;-76
2022/01/16 08:36:43;;;;;;;2.10;2.00;;;-0.20;95.10;-1.00;99129.00;;;;5116143;28;20276;-74
2022/01/16 08:39:09;;;;;;;4.07;3.77;;;-0.10;95.30;-1.00;99121.00;;;;5097710;28;20221;-77
2022/01/16 08:41:38;;;;;;;3.60;3.27;;;0.00;94.90;-1.00;99139.00;;;;5116131;28;20296;-76
2022/01/16 08:44:05;;;;;;;3.37;3.03;;;0.00;94.40;-1.10;99139.00;;;;5116072;28;20275;-76
2022/01/16 08:46:33;;;;;;;3.10;2.70;;;-0.10;94.30;-1.10;99122.00;;;;5116037;28;20314;-77
2022/01/16 08:49:00;;;;;;;3.33;3.03;;;-0.10;94.30;-1.10;99143.00;;;;5115958;28;20273;-76
2022/01/16 08:51:27;;;;;;;3.73;3.40;;;-0.10;94.80;-1.00;99145.00;;;;5115989;28;20226;-76
2022/01/16 08:53:54;;;;;;;1.87;1.77;;;0.00;94.80;-0.90;99143.00;;;;5116015;28;20277;-76
2022/01/16 08:56:21;;;;;;;5.20;3.90;;;0.00;94.30;-0.90;99145.00;;;;5115909;28;20301;-76
2022/01/16 08:58:47;;;;;;;2.93;2.73;;;0.00;94.10;-1.00;99149.00;;;;5116067;28;20286;-76
2022/01/16 09:01:14;;;;;;;3.27;2.50;;;0.00;93.20;-1.00;99152.00;;;;5115790;28;20521;-76
2022/01/16 09:03:43;;;;;;;3.43;3.17;;;0.00;93.80;-0.80;99143.00;;;;5115764;28;20241;-77
2022/01/16 09:06:10;;;;;;;2.77;2.43;;;0.10;93.60;-0.80;99148.00;;;;5115685;28;20309;-77
2022/01/16 09:08:36;;;;;;;6.30;3.93;;;0.20;93.50;-0.90;99158.00;;;;5115693;28;20723;-76
2022/01/16 09:11:04;;;;;;;8.23;4.60;;;0.10;93.70;-0.80;99155.00;;;;5115889;28;20209;-76
2022/01/16 09:13:33;;;;;;;4.20;2.40;;;0.20;93.90;-0.70;99170.00;;;;5115889;28;20209;-75
2022/01/16 09:16:02;;;;;;;6.57;3.93;;;0.20;95.20;-0.70;99165.00;;;;5115437;28;20747;-77
2022/01/16 09:18:28;;;;;;;3.63;2.23;;;0.30;94.20;-0.60;99178.00;;;;5115646;28;20186;-76
2022/01/16 09:20:56;;;;;;;2.13;2.03;;;0.30;93.90;-0.60;99172.00;;;;5115533;28;20245;-77
2022/01/16 09:23:26;;;;;;;4.90;4.43;;;0.40;93.90;-0.50;99165.00;;;;5115555;28;20217;-76
2022/01/16 09:25:53;;;;;;;6.30;3.70;;;0.50;94.30;-0.70;99177.00;;;;5115504;28;20725;-76
2022/01/16 09:28:22;;;;;;;6.27;3.03;;;0.30;94.80;-0.70;99167.00;;;;5115394;28;20730;-76
2022/01/16 09:30:48;;;;;;;3.40;3.10;;;0.30;95.50;-0.60;99171.00;;;;5115402;28;20617;-76
2022/01/16 09:33:15;;;;;;;5.13;3.17;;;0.30;96.20;-0.50;99166.00;;;;5115344;28;20271;-76
2022/01/16 09:35:42;;;;;;;3.67;3.37;;;0.50;96.00;-0.30;99175.00;;;;5115876;28;20630;-76
2022/01/16 09:38:09;;;;;;;3.47;2.87;;;0.60;95.80;-0.20;99184.00;;;;5115231;28;20653;-76
2022/01/16 09:40:37;;;;;;;2.30;2.20;;;0.80;94.80;-0.10;99173.00;;;;5115071;28;20229;-76
2022/01/16 09:43:04;;;;;;;4.00;3.57;;;0.70;96.10;-0.20;99185.00;;;;5097222;28;20266;-76
2022/01/16 09:45:31;;;;;;;5.67;4.83;;;0.80;94.90;-0.20;99190.00;;;;5114981;28;20225;-76
2022/01/16 09:47:58;;;;;;;3.67;3.37;;;0.80;94.80;-0.20;99201.00;;;;5115293;28;20229;-75
2022/01/16 09:50:26;;;;;;;5.07;3.07;;;0.80;95.00;0.00;99203.00;;;;5113929;28;20206;-76
2022/01/16 09:52:55;;;;;;;3.03;2.83;;;0.90;95.40;0.10;99210.00;;;;5114917;28;20244;-75
2022/01/16 09:55:24;;;;;;;4.23;2.97;;;1.00;95.10;0.30;99207.00;;;;5115006;28;20571;-77
2022/01/16 09:57:56;;;;;;;3.77;3.47;;;1.10;94.80;0.10;99220.00;;;;5114930;28;20217;-76
2022/01/16 10:00:25;;;;;;;3.23;3.03;;;1.10;94.60;0.30;99213.00;;;;5115099;28;20216;-76
2022/01/16 10:02:53;;;;;;;5.43;3.23;;;1.20;94.60;0.20;99219.00;;;;5096888;28;20558;-77
2022/01/16 10:05:29;;;;;;;4.57;4.13;;;1.10;94.80;0.30;99213.00;;;;5114667;28;20279;-76
2022/01/16 10:07:58;;;;;;;5.60;4.50;;;1.30;94.10;0.40;99211.00;;;;5097169;28;20307;-76
2022/01/16 10:10:29;;;;;;;4.67;4.30;;;1.30;94.30;0.60;99211.00;;;;5125278;28;20225;-77
2022/01/16 10:13:05;;;;;;;4.17;3.53;;;1.40;94.50;0.70;99205.00;;;;5127492;28;20601;-72
2022/01/16 10:15:32;;;;;;;5.33;4.83;;;1.60;94.30;0.60;99214.00;;;;5116983;28;20203;-76
2022/01/16 10:18:04;;;;;;;3.23;2.83;;;1.60;93.90;0.70;99206.00;;;;5115714;28;20276;-76
2022/01/16 10:20:44;;;;;;;3.10;2.90;;;1.60;94.00;0.80;99210.00;;;;5115283;28;20290;-76
2022/01/16 10:23:18;;;;;;;2.30;2.20;;;1.60;94.30;0.90;99205.00;;;;5115163;28;20226;-76
2022/01/16 10:25:48;;;;;;;1.97;1.87;;;1.80;93.40;0.80;99196.00;;;;5115834;28;20227;-75
2022/01/16 10:28:18;;;;;;;2.80;2.60;;;1.70;93.50;0.80;99152.00;;;;5119518;28;20266;-76
2022/01/16 10:30:47;;;;;;;3.30;3.00;;;1.70;94.10;0.90;99202.00;;;;5116179;28;20576;-76
2022/01/16 10:33:19;;;;;;;3.70;3.23;;;1.80;93.10;1.00;99192.00;;;;5114693;28;20236;-76
2022/01/16 10:35:51;;;;;;;3.00;2.80;;;1.90;92.30;0.90;99195.00;;;;5114555;28;20252;-76
2022/01/16 10:38:21;;;;;;;2.33;2.13;;;1.90;93.00;1.00;99208.00;;;;5114411;28;20298;-76
2022/01/16 10:40:51;;;;;;;3.03;2.73;;;1.90;93.20;1.20;99196.00;;;;5114389;28;20252;-76
2022/01/16 10:43:21;;;;;;;3.73;3.43;;;2.10;92.90;1.40;99221.00;;;;5114276;28;20316;-76
2022/01/16 10:45:51;;;;;;;3.27;2.97;;;2.20;91.90;1.40;99221.00;;;;5114515;28;20238;-76
2022/01/16 10:48:24;;;;;;;2.90;2.70;;;2.40;91.00;1.60;99224.00;;;;5114311;28;20215;-76
2022/01/16 10:50:53;;;;;;;3.67;2.70;;;2.40;91.60;1.40;99223.00;;;;5096871;28;20497;-76
2022/01/16 10:53:26;;;;;;;2.50;2.30;;;2.40;90.10;1.40;99239.00;;;;5096312;28;20761;-76
2022/01/16 10:55:56;;;;;;;3.57;2.33;;;2.20;90.90;1.40;99246.00;;;;5114223;28;20283;-75
2022/01/16 10:58:27;;;;;;;2.23;2.13;;;2.30;91.60;1.50;99243.00;;;;5096464;28;20190;-75
2022/01/16 11:01:00;;;;;;;3.13;2.93;;;2.40;91.00;1.50;99241.00;;;;5114431;28;20352;-76
2022/01/16 11:03:29;;;;;;;2.40;2.20;;;2.40;90.70;1.50;99257.00;;;;5117709;28;20207;-74
2022/01/16 11:05:58;;;;;;;2.43;2.23;;;2.40;91.30;1.50;99241.00;;;;5117805;28;20731;-76
2022/01/16 11:08:27;;;;;;;1.90;1.73;;;2.40;91.00;1.50;99250.00;;;;5117643;28;20294;-76
2022/01/16 11:10:56;;;;;;;2.50;2.30;;;2.40;91.10;1.50;99252.00;;;;5117618;28;20196;-76
2022/01/16 11:13:29;;;;;;;3.90;3.53;;;2.40;91.40;1.70;99248.00;;;;5117968;28;20199;-77
2022/01/16 11:16:02;;;;;;;4.20;3.50;;;2.50;91.30;1.40;99254.00;;;;5099579;28;20199;-77
2022/01/16 11:18:30;;;;;;;3.43;2.83;;;2.40;91.10;1.50;99253.00;;;;5117457;28;20276;-77
2022/01/16 11:21:08;;;;;;;4.50;3.70;;;2.40;91.80;1.30;99268.00;;;;5117847;28;20275;-77
2022/01/16 11:23:48;;;;;;;4.70;3.27;;;2.30;91.80;1.40;99256.00;;;;5117551;28;20218;-77
2022/01/16 11:26:17;;;;;;;3.57;2.33;;;2.30;91.70;1.40;99253.00;;;;5117271;28;20215;-75
2022/01/16 11:28:47;;;;;;;4.17;3.80;;;2.20;92.40;1.30;99257.00;;;;5117445;28;20207;-76
2022/01/16 11:31:16;;;;;;;2.53;2.33;;;2.30;92.20;1.40;99263.00;;;;5117273;28;20285;-76
2022/01/16 11:33:46;;;;;;;3.10;2.90;;;2.30;91.30;1.10;99274.00;;;;5117269;28;20200;-76
2022/01/16 11:36:17;;;;;;;5.23;3.30;;;2.10;92.50;1.20;99257.00;;;;5117489;28;20211;-76
2022/01/16 11:38:49;;;;;;;10.17;4.37;;;2.20;92.40;1.20;99258.00;;;;5117172;28;20207;-76
2022/01/16 11:41:24;;;;;;;5.20;3.13;;;2.10;92.40;1.00;99267.00;;;;5117526;28;20195;-76
2022/01/16 11:43:53;;;;;;;3.20;2.97;;;2.00;92.30;1.10;99274.00;;;;5117092;28;20204;-76